Aegina II — SW6459 — position and weather

sailwx.info

Track history (hours):
 
Tides and Currents Weather Stations Pressure Air Temp Water Temp Dewpoint Dewpoint Depression Visibility Wind Speed Wind Dir Waves Ship Positions

Aegina II

Last reported at 2018-Feb-23 17:17 UTC. Time now 2018-Feb-24 15:38 UTC.
Position N 37°47' E 023°26'.

Length 53 m; draft 5.5 m.

Type: Tanker. MMSI: 237096700.

Date/timePositionNaut miles runAvg speedWind from/ knotsBaromVisibWave heightAir tempDewpointWater temp
2018-Feb-23 17:17N 37°47' E 023°26'1 5.1
2018-Feb-23 17:00N 37°48' E 023°27'3 5.1
2018-Feb-23 16:30N 37°50' E 023°29'3 5.0
2018-Feb-23 16:00N 37°53' E 023°31'3 5.2
2018-Feb-23 15:30N 37°55' E 023°33'2 5.0
2018-Feb-23 15:00N 37°57' E 023°35'2 4.2
2018-Feb-23 14:30N 37°58' E 023°33'2 5.0
2018-Feb-23 14:00N 38°01' E 023°34'2 3.6
2018-Feb-23 13:30N 38°02' E 023°35'0 0.0
2018-Feb-23 12:54N 38°02' E 023°35'0 0.0
2018-Feb-23 12:30N 38°02' E 023°35'0 0.0
2018-Feb-23 11:57N 38°02' E 023°35'0 0.0
2018-Feb-23 11:31N 38°02' E 023°35'0 0.6
2018-Feb-23 10:58N 38°02' E 023°36'0 0.0
2018-Feb-23 10:29N 38°02' E 023°36'3 6.2
2018-Feb-23 10:01N 37°60' E 023°33'3 5.6
2018-Feb-23 09:30N 37°57' E 023°34'3 6.1
2018-Feb-23 09:00N 37°54' E 023°33'3 6.5
2018-Feb-23 08:30N 37°51' E 023°31'0 0.2
2018-Feb-23 08:01N 37°51' E 023°31'0 0.0
2018-Feb-23 07:29N 37°51' E 023°31'0 0.0
2018-Feb-23 07:00N 37°51' E 023°31'0 0.0
2018-Feb-23 06:29N 37°51' E 023°31'2 3.7
2018-Feb-23 06:00N 37°50' E 023°29'3 6.0
2018-Feb-23 05:30N 37°48' E 023°27'3 5.9
2018-Feb-23 05:01N 37°45' E 023°25'1 0.1
2018-Feb-22 15:14N 37°45' E 023°26'0 1.4
2018-Feb-22 15:00N 37°45' E 023°25'2 4.4
2018-Feb-22 14:30N 37°47' E 023°26'3 5.2
2018-Feb-22 14:00N 37°49' E 023°27'3 5.1
2018-Feb-22 13:30N 37°51' E 023°29'3 5.2
2018-Feb-22 13:00N 37°53' E 023°31'3 5.0
2018-Feb-22 12:30N 37°55' E 023°33'2 4.5
2018-Feb-22 12:00N 37°57' E 023°35'2 4.3
2018-Feb-22 11:30N 37°59' E 023°33'2 4.9
2018-Feb-22 11:00N 38°01' E 023°34'2 2.5
2018-Feb-22 10:24N 38°02' E 023°35'0 0.0
2018-Feb-22 10:00N 38°02' E 023°35'0 0.0
2018-Feb-22 09:26N 38°02' E 023°35'0 0.0
2018-Feb-22 08:58N 38°02' E 023°35'0 0.0
2018-Feb-22 08:30N 38°02' E 023°35'1 2.2
2018-Feb-22 08:00N 38°01' E 023°34'3 6.6
2018-Feb-22 07:30N 37°58' E 023°33'2 4.6
2018-Feb-22 07:00N 37°56' E 023°34'3 6.7
2018-Feb-22 06:30N 37°53' E 023°31'3 6.7
2018-Feb-22 06:00N 37°51' E 023°29'6 0.5
2018-Feb-21 16:36N 37°45' E 023°26'0 2.0
2018-Feb-21 16:31N 37°44' E 023°26'2 4.1
2018-Feb-21 16:01N 37°47' E 023°25'3 5.4
2018-Feb-21 15:31N 37°49' E 023°27'3 5.2
2018-Feb-21 15:00N 37°51' E 023°29'3 5.2
2018-Feb-21 14:31N 37°53' E 023°31'3 5.1
2018-Feb-21 14:01N 37°55' E 023°33'2 4.3
2018-Feb-21 13:30N 37°57' E 023°34'2 4.3
2018-Feb-21 13:01N 37°59' E 023°33'3 5.1
2018-Feb-21 12:30N 38°01' E 023°34'1 2.5
2018-Feb-21 12:00N 38°02' E 023°35'0 0.0
2018-Feb-21 11:30N 38°02' E 023°35'0 0.0
2018-Feb-21 10:58N 38°02' E 023°35'0 0.0
2018-Feb-21 10:28N 38°02' E 023°35'0 0.0
2018-Feb-21 09:55N 38°02' E 023°35'0 0.0
2018-Feb-21 09:30N 38°02' E 023°35'0 0.0
2018-Feb-21 08:59N 38°02' E 023°35'0 0.0
2018-Feb-21 08:29N 38°02' E 023°35'0 0.1
2018-Feb-21 08:00N 38°02' E 023°35'3 6.5
2018-Feb-21 07:30N 37°59' E 023°33'3 5.7
2018-Feb-21 07:00N 37°57' E 023°35'4 6.9
2018-Feb-21 06:30N 37°54' E 023°32'3 7.0
2018-Feb-21 06:00N 37°51' E 023°30'3 6.9
2018-Feb-21 05:30N 37°48' E 023°27'3 6.8
2018-Feb-21 05:00N 37°46' E 023°25'1 0.0
2018-Feb-20 16:46N 37°45' E 023°25'1 5.1
2018-Feb-20 16:30N 37°46' E 023°25'3 5.3
2018-Feb-20 16:00N 37°48' E 023°27'3 5.4
2018-Feb-20 15:30N 37°51' E 023°29'3 5.3
2018-Feb-20 15:00N 37°53' E 023°31'1 2.5
2018-Feb-20 14:28N 37°53' E 023°33'0 0.2
2018-Feb-20 13:56N 37°53' E 023°33'0 0.1
2018-Feb-20 13:29N 37°54' E 023°33'0 0.1
2018-Feb-20 13:00N 37°53' E 023°33'1 2.3
2018-Feb-20 12:30N 37°55' E 023°33'2 5.1
2018-Feb-20 12:01N 37°57' E 023°35'2 4.4
2018-Feb-20 11:30N 37°58' E 023°33'3 5.1
2018-Feb-20 11:00N 38°01' E 023°34'2 2.8
2018-Feb-20 10:26N 38°02' E 023°35'0 0.0
2018-Feb-20 09:55N 38°02' E 023°35'0 0.0
2018-Feb-20 09:30N 38°02' E 023°35'0 0.0
2018-Feb-20 08:59N 38°02' E 023°35'0 0.0
2018-Feb-20 08:28N 38°02' E 023°35'2 3.4
2018-Feb-20 08:00N 38°01' E 023°34'3 6.5
2018-Feb-20 07:31N 37°58' E 023°33'2 4.5
2018-Feb-20 07:00N 37°56' E 023°34'3 6.7
2018-Feb-20 06:30N 37°53' E 023°31'3 6.5
2018-Feb-20 06:00N 37°50' E 023°29'3 6.4
2018-Feb-20 05:30N 37°48' E 023°26'3 5.7
2018-Feb-20 05:00N 37°45' E 023°25'1 0.1
2018-Feb-19 20:55N 37°45' E 023°26'0 0.0
2018-Feb-19 20:30N 37°45' E 023°26'0 0.0
2018-Feb-19 19:55N 37°45' E 023°26'0 0.0
2018-Feb-19 19:25N 37°45' E 023°26'0 0.0
2018-Feb-19 18:59N 37°45' E 023°26'0 0.0
2018-Feb-19 18:29N 37°45' E 023°26'0 0.0
2018-Feb-19 17:45N 37°45' E 023°26'0 0.0
2018-Feb-19 17:29N 37°45' E 023°26'0 0.0
2018-Feb-19 16:57N 37°45' E 023°26'0 0.0
2018-Feb-19 16:28N 37°45' E 023°26'0 0.0
2018-Feb-19 15:56N 37°45' E 023°26'0 0.0
2018-Feb-19 15:28N 37°45' E 023°26'0 0.1
2018-Feb-19 15:00N 37°45' E 023°26'2 3.5
2018-Feb-19 14:30N 37°46' E 023°25'3 5.2
2018-Feb-19 14:00N 37°48' E 023°27'3 5.2
2018-Feb-19 13:30N 37°51' E 023°29'3 5.2
2018-Feb-19 13:00N 37°53' E 023°31'3 5.1
2018-Feb-19 12:30N 37°55' E 023°33'3 5.0
2018-Feb-19 12:00N 37°57' E 023°35'2 4.3
2018-Feb-19 11:31N 37°58' E 023°33'3 5.1
2018-Feb-19 11:00N 38°01' E 023°34'2 3.3
2018-Feb-19 10:28N 38°02' E 023°35'0 0.0
2018-Feb-19 09:59N 38°02' E 023°35'0 0.0
2018-Feb-19 09:28N 38°02' E 023°35'0 0.0
2018-Feb-19 09:00N 38°02' E 023°35'0 0.0
2018-Feb-19 08:25N 38°02' E 023°35'1 3.0
2018-Feb-19 08:00N 38°01' E 023°34'3 6.5
2018-Feb-19 07:30N 37°58' E 023°33'2 4.7
2018-Feb-19 07:00N 37°56' E 023°34'3 6.8
2018-Feb-19 06:30N 37°53' E 023°31'3 6.7
2018-Feb-19 06:00N 37°50' E 023°29'3 6.6
2018-Feb-19 05:30N 37°48' E 023°26'3 6.0
2018-Feb-19 05:00N 37°45' E 023°25'0 0.8
2018-Feb-19 04:30N 37°45' E 023°26'0 0.0
2018-Feb-19 03:59N 37°45' E 023°26'0 0.0
2018-Feb-19 03:29N 37°45' E 023°26'0 0.0
2018-Feb-19 02:55N 37°45' E 023°26'0 0.0
2018-Feb-19 02:25N 37°45' E 023°26'0 0.0
2018-Feb-19 01:55N 37°45' E 023°26'0 0.0
2018-Feb-19 01:27N 37°45' E 023°26'0 0.0
2018-Feb-19 01:00N 37°45' E 023°26'0 0.0
2018-Feb-19 00:30N 37°45' E 023°26'0 0.0
2018-Feb-18 23:47N 37°45' E 023°26'0 0.0
2018-Feb-18 23:29N 37°45' E 023°26'0 0.0
2018-Feb-18 22:59N 37°45' E 023°26'0 0.0
2018-Feb-18 22:29N 37°45' E 023°26'0 0.0
2018-Feb-18 21:59N 37°45' E 023°26'0 0.0
2018-Feb-18 21:29N 37°45' E 023°26'0 0.0
2018-Feb-18 20:59N 37°45' E 023°26'0 0.0
2018-Feb-18 20:29N 37°45' E 023°26'0 0.0
2018-Feb-18 19:55N 37°45' E 023°26'0 0.0
2018-Feb-18 19:25N 37°45' E 023°26'0 0.0
2018-Feb-18 18:57N 37°45' E 023°26'0 0.0
2018-Feb-18 18:26N 37°45' E 023°26'0 0.0
2018-Feb-18 17:59N 37°45' E 023°26'0 0.0
2018-Feb-18 17:28N 37°45' E 023°26'0 0.0
2018-Feb-18 16:55N 37°45' E 023°26'0 0.0
2018-Feb-18 16:28N 37°45' E 023°26'0 0.0
2018-Feb-18 15:51N 37°45' E 023°26'0 0.0
2018-Feb-18 15:25N 37°45' E 023°26'0 0.2
2018-Feb-18 14:55N 37°45' E 023°26'2 3.7
2018-Feb-18 14:30N 37°46' E 023°25'3 5.2
2018-Feb-18 14:00N 37°48' E 023°27'3 5.2
2018-Feb-18 13:30N 37°50' E 023°29'3 5.2
2018-Feb-18 13:00N 37°52' E 023°31'3 5.1
2018-Feb-18 12:30N 37°54' E 023°33'3 5.1
2018-Feb-18 12:00N 37°56' E 023°34'2 3.6
2018-Feb-18 11:31N 37°58' E 023°33'3 5.1
2018-Feb-18 11:00N 38°00' E 023°33'2 4.5
2018-Feb-18 10:30N 38°02' E 023°35'0 0.1
2018-Feb-18 09:59N 38°02' E 023°35'0 0.0
2018-Feb-18 09:28N 38°02' E 023°35'0 0.0
2018-Feb-18 08:59N 38°02' E 023°35'0 0.0
2018-Feb-18 08:29N 38°02' E 023°35'1 1.3
2018-Feb-18 08:00N 38°02' E 023°35'3 6.7
2018-Feb-18 07:30N 37°59' E 023°33'3 5.1
2018-Feb-18 07:00N 37°56' E 023°34'3 6.8
2018-Feb-18 06:30N 37°54' E 023°32'3 6.9
2018-Feb-18 06:00N 37°51' E 023°29'3 6.8
2018-Feb-18 05:30N 37°48' E 023°27'3 6.6
2018-Feb-18 05:01N 37°45' E 023°25'1 1.0
2018-Feb-18 04:28N 37°45' E 023°26'0 0.0
2018-Feb-18 03:58N 37°45' E 023°26'0 0.0
2018-Feb-18 03:28N 37°45' E 023°26'0 0.0
2018-Feb-18 02:59N 37°45' E 023°26'0 0.0
2018-Feb-18 02:29N 37°45' E 023°26'0 0.0
2018-Feb-18 01:58N 37°45' E 023°26'0 0.0
2018-Feb-18 01:26N 37°45' E 023°26'0 0.0
2018-Feb-18 00:56N 37°45' E 023°26'0 0.0
2018-Feb-18 00:26N 37°45' E 023°26'0 0.0
2018-Feb-17 23:56N 37°45' E 023°26'0 0.0
2018-Feb-17 23:26N 37°45' E 023°26'0 0.0
2018-Feb-17 22:56N 37°45' E 023°26'0 0.0
2018-Feb-17 22:27N 37°45' E 023°26'0 0.0
2018-Feb-17 22:00N 37°45' E 023°26'0 0.0
2018-Feb-17 21:27N 37°45' E 023°26'0 0.0
2018-Feb-17 21:00N 37°45' E 023°26'0 0.0
2018-Feb-17 20:30N 37°45' E 023°26'0 0.0
2018-Feb-17 20:00N 37°45' E 023°26'0 0.0
2018-Feb-17 19:30N 37°45' E 023°26'0 0.0
2018-Feb-17 19:00N 37°45' E 023°26'0 0.0
2018-Feb-17 18:26N 37°45' E 023°26'0 0.0
2018-Feb-17 17:59N 37°45' E 023°26'0 0.0
2018-Feb-17 17:29N 37°45' E 023°26'0 0.0
2018-Feb-17 16:54N 37°45' E 023°26'0 0.0
2018-Feb-17 16:30N 37°45' E 023°26'0 0.0
2018-Feb-17 15:54N 37°45' E 023°26'1 1.3
2018-Feb-17 15:30N 37°45' E 023°25'3 5.0
2018-Feb-17 15:00N 37°47' E 023°26'3 5.4
2018-Feb-17 14:30N 37°49' E 023°28'3 5.4
2018-Feb-17 14:01N 37°52' E 023°30'3 5.3
2018-Feb-17 13:30N 37°54' E 023°32'3 5.3
2018-Feb-17 13:00N 37°56' E 023°34'1 2.9
2018-Feb-17 12:30N 37°57' E 023°33'2 4.8
2018-Feb-17 12:00N 37°60' E 023°33'3 5.3
2018-Feb-17 11:30N 38°02' E 023°35'0 0.5
2018-Feb-17 10:58N 38°02' E 023°35'0 0.0
2018-Feb-17 10:29N 38°02' E 023°35'0 0.0
2018-Feb-17 09:58N 38°02' E 023°35'0 0.0
2018-Feb-17 09:30N 38°02' E 023°35'1 2.0
2018-Feb-17 09:00N 38°01' E 023°34'3 6.0
2018-Feb-17 08:30N 37°58' E 023°33'3 5.2
2018-Feb-17 08:01N 37°56' E 023°35'3 6.1
2018-Feb-17 07:30N 37°54' E 023°33'2 3.7
2018-Feb-17 07:00N 37°52' E 023°31'0 0.0
2018-Feb-17 06:27N 37°52' E 023°31'0 0.1
2018-Feb-17 06:00N 37°52' E 023°31'1 2.5
2018-Feb-17 05:30N 37°52' E 023°30'3 6.0
2018-Feb-17 05:01N 37°49' E 023°28'3 5.9
2018-Feb-17 04:31N 37°47' E 023°26'2 4.2
2018-Feb-17 03:59N 37°45' E 023°26'0 0.0
2018-Feb-17 03:30N 37°45' E 023°26'0 0.0
2018-Feb-17 02:24N 37°45' E 023°26'0 0.0
2018-Feb-17 01:51N 37°45' E 023°26'0 0.0
2018-Feb-17 01:15N 37°45' E 023°26'0 0.0
2018-Feb-17 00:15N 37°45' E 023°26'0 0.0
2018-Feb-16 23:51N 37°45' E 023°26'0 0.0
2018-Feb-16 22:27N 37°45' E 023°26'0 0.0
2018-Feb-16 21:35N 37°45' E 023°26'0 0.0
2018-Feb-16 21:29N 37°45' E 023°26'1 1.1
2018-Feb-16 21:00N 37°45' E 023°25'2 5.0
2018-Feb-16 20:30N 37°47' E 023°26'3 5.2
2018-Feb-16 20:00N 37°49' E 023°28'3 5.1
2018-Feb-16 19:30N 37°51' E 023°30'3 5.2
2018-Feb-16 19:00N 37°54' E 023°31'3 5.3
2018-Feb-16 18:30N 37°56' E 023°34'2 3.2
2018-Feb-16 18:01N 37°57' E 023°34'3 5.0
2018-Feb-16 17:31N 37°60' E 023°33'3 5.1
2018-Feb-16 17:01N 38°02' E 023°35'0 0.7
2018-Feb-16 16:30N 38°02' E 023°35'0 0.0
2018-Feb-16 15:55N 38°02' E 023°35'0 0.0
2018-Feb-16 15:29N 38°02' E 023°35'0 0.0
2018-Feb-16 15:00N 38°02' E 023°35'0 0.7
2018-Feb-16 14:30N 38°02' E 023°36'1 2.8
2018-Feb-16 13:59N 38°01' E 023°34'3 5.4
2018-Feb-16 13:30N 37°59' E 023°33'2 4.8
2018-Feb-16 13:00N 37°57' E 023°35'1 2.4
2018-Feb-16 12:28N 37°56' E 023°34'0 0.4
2018-Feb-16 12:00N 37°56' E 023°34'0 0.6
2018-Feb-16 11:31N 37°55' E 023°34'1 1.1
2018-Feb-16 10:59N 37°55' E 023°34'2 5.1
2018-Feb-16 10:31N 37°53' E 023°32'2 3.0
2018-Feb-16 09:56N 37°52' E 023°31'0 0.1
2018-Feb-16 09:29N 37°52' E 023°31'0 0.1
2018-Feb-16 08:58N 37°52' E 023°31'0 0.0
2018-Feb-16 08:28N 37°52' E 023°31'0 0.1
2018-Feb-16 08:00N 37°52' E 023°31'0 0.1
2018-Feb-16 07:30N 37°52' E 023°31'0 0.6
2018-Feb-16 06:58N 37°51' E 023°31'0 0.4
2018-Feb-16 06:30N 37°52' E 023°31'3 5.7
2018-Feb-16 06:01N 37°50' E 023°28'3 5.7
2018-Feb-16 05:31N 37°47' E 023°26'3 5.1
2018-Feb-16 05:00N 37°45' E 023°25'1 0.9
2018-Feb-16 04:21N 37°45' E 023°26'0 0.0
2018-Feb-16 03:55N 37°45' E 023°26'0 0.0
2018-Feb-16 03:25N 37°45' E 023°26'0 0.0
2018-Feb-16 02:55N 37°45' E 023°26'0 0.0
2018-Feb-16 02:28N 37°45' E 023°26'0 0.0
2018-Feb-16 01:55N 37°45' E 023°26'0 0.0
2018-Feb-16 01:25N 37°45' E 023°26'0 0.0
2018-Feb-16 00:55N 37°45' E 023°26'0 0.0
2018-Feb-16 00:29N 37°45' E 023°26'0 0.0
2018-Feb-15 23:58N 37°45' E 023°26'0 0.0
2018-Feb-15 23:28N 37°45' E 023°26'0 0.0
2018-Feb-15 22:58N 37°45' E 023°26'0 0.0
2018-Feb-15 22:28N 37°45' E 023°26'0 0.0
2018-Feb-15 21:58N 37°45' E 023°26'0 0.0
2018-Feb-15 21:28N 37°45' E 023°26'0 0.0
2018-Feb-15 20:58N 37°45' E 023°26'0 0.0
2018-Feb-15 20:29N 37°45' E 023°26'0 0.0
2018-Feb-15 19:59N 37°45' E 023°26'0 0.0
2018-Feb-15 19:29N 37°45' E 023°26'0 0.0
2018-Feb-15 19:00N 37°45' E 023°26'0 0.0
2018-Feb-15 18:30N 37°45' E 023°26'0 0.0
2018-Feb-15 18:00N 37°45' E 023°26'0 0.0
2018-Feb-15 17:26N 37°45' E 023°26'0 0.0
2018-Feb-15 16:50N 37°45' E 023°26'0 0.0
2018-Feb-15 16:25N 37°45' E 023°26'0 0.0
2018-Feb-15 15:58N 37°45' E 023°26'0 0.2
2018-Feb-15 15:31N 37°45' E 023°26'2 3.6
2018-Feb-15 15:01N 37°46' E 023°25'3 5.3
2018-Feb-15 14:30N 37°49' E 023°27'3 5.2
2018-Feb-15 14:00N 37°51' E 023°29'2 4.9
2018-Feb-15 13:31N 37°53' E 023°31'2 4.4
2018-Feb-15 13:01N 37°54' E 023°33'2 4.0
2018-Feb-15 12:30N 37°56' E 023°34'1 2.8
2018-Feb-15 12:00N 37°57' E 023°33'2 4.5
2018-Feb-15 11:30N 37°60' E 023°33'2 4.8
2018-Feb-15 11:00N 38°02' E 023°35'  
Track history (hours):
 
Tides and Currents Weather Stations Pressure Air Temp Water Temp Dewpoint Dewpoint Depression Visibility Wind Speed Wind Dir Waves Ship Positions

Aegina II

Last reported at 2018-Feb-23 17:17 UTC. Time now 2018-Feb-24 15:38 UTC.
Position N 37°47' E 023°26'.

Length 53 m; draft 5.5 m.

Type: Tanker. MMSI: 237096700.

Date/timePositionNaut miles runAvg speedWind from/ knotsBaromVisibWave heightAir tempDewpointWater temp
2018-Feb-23 17:17N 37°47' E 023°26'1 5.1
2018-Feb-23 17:00N 37°48' E 023°27'3 5.1
2018-Feb-23 16:30N 37°50' E 023°29'3 5.0
2018-Feb-23 16:00N 37°53' E 023°31'3 5.2
2018-Feb-23 15:30N 37°55' E 023°33'2 5.0
2018-Feb-23 15:00N 37°57' E 023°35'2 4.2
2018-Feb-23 14:30N 37°58' E 023°33'2 5.0
2018-Feb-23 14:00N 38°01' E 023°34'2 3.6
2018-Feb-23 13:30N 38°02' E 023°35'0 0.0
2018-Feb-23 12:54N 38°02' E 023°35'0 0.0
2018-Feb-23 12:30N 38°02' E 023°35'0 0.0
2018-Feb-23 11:57N 38°02' E 023°35'0 0.0
2018-Feb-23 11:31N 38°02' E 023°35'0 0.6
2018-Feb-23 10:58N 38°02' E 023°36'0 0.0
2018-Feb-23 10:29N 38°02' E 023°36'3 6.2
2018-Feb-23 10:01N 37°60' E 023°33'3 5.6
2018-Feb-23 09:30N 37°57' E 023°34'3 6.1
2018-Feb-23 09:00N 37°54' E 023°33'3 6.5
2018-Feb-23 08:30N 37°51' E 023°31'0 0.2
2018-Feb-23 08:01N 37°51' E 023°31'0 0.0
2018-Feb-23 07:29N 37°51' E 023°31'0 0.0
2018-Feb-23 07:00N 37°51' E 023°31'0 0.0
2018-Feb-23 06:29N 37°51' E 023°31'2 3.7
2018-Feb-23 06:00N 37°50' E 023°29'3 6.0
2018-Feb-23 05:30N 37°48' E 023°27'3 5.9
2018-Feb-23 05:01N 37°45' E 023°25'1 0.1
2018-Feb-22 15:14N 37°45' E 023°26'0 1.4
2018-Feb-22 15:00N 37°45' E 023°25'2 4.4
2018-Feb-22 14:30N 37°47' E 023°26'3 5.2
2018-Feb-22 14:00N 37°49' E 023°27'3 5.1
2018-Feb-22 13:30N 37°51' E 023°29'3 5.2
2018-Feb-22 13:00N 37°53' E 023°31'3 5.0
2018-Feb-22 12:30N 37°55' E 023°33'2 4.5
2018-Feb-22 12:00N 37°57' E 023°35'2 4.3
2018-Feb-22 11:30N 37°59' E 023°33'2 4.9
2018-Feb-22 11:00N 38°01' E 023°34'2 2.5
2018-Feb-22 10:24N 38°02' E 023°35'0 0.0
2018-Feb-22 10:00N 38°02' E 023°35'0 0.0
2018-Feb-22 09:26N 38°02' E 023°35'0 0.0
2018-Feb-22 08:58N 38°02' E 023°35'0 0.0
2018-Feb-22 08:30N 38°02' E 023°35'1 2.2
2018-Feb-22 08:00N 38°01' E 023°34'3 6.6
2018-Feb-22 07:30N 37°58' E 023°33'2 4.6
2018-Feb-22 07:00N 37°56' E 023°34'3 6.7
2018-Feb-22 06:30N 37°53' E 023°31'3 6.7
2018-Feb-22 06:00N 37°51' E 023°29'6 0.5
2018-Feb-21 16:36N 37°45' E 023°26'0 2.0
2018-Feb-21 16:31N 37°44' E 023°26'2 4.1
2018-Feb-21 16:01N 37°47' E 023°25'3 5.4
2018-Feb-21 15:31N 37°49' E 023°27'3 5.2
2018-Feb-21 15:00N 37°51' E 023°29'3 5.2
2018-Feb-21 14:31N 37°53' E 023°31'3 5.1
2018-Feb-21 14:01N 37°55' E 023°33'2 4.3
2018-Feb-21 13:30N 37°57' E 023°34'2 4.3
2018-Feb-21 13:01N 37°59' E 023°33'3 5.1
2018-Feb-21 12:30N 38°01' E 023°34'1 2.5
2018-Feb-21 12:00N 38°02' E 023°35'0 0.0
2018-Feb-21 11:30N 38°02' E 023°35'0 0.0
2018-Feb-21 10:58N 38°02' E 023°35'0 0.0
2018-Feb-21 10:28N 38°02' E 023°35'0 0.0
2018-Feb-21 09:55N 38°02' E 023°35'0 0.0
2018-Feb-21 09:30N 38°02' E 023°35'0 0.0
2018-Feb-21 08:59N 38°02' E 023°35'0 0.0
2018-Feb-21 08:29N 38°02' E 023°35'0 0.1
2018-Feb-21 08:00N 38°02' E 023°35'3 6.5
2018-Feb-21 07:30N 37°59' E 023°33'3 5.7
2018-Feb-21 07:00N 37°57' E 023°35'4 6.9
2018-Feb-21 06:30N 37°54' E 023°32'3 7.0
2018-Feb-21 06:00N 37°51' E 023°30'3 6.9
2018-Feb-21 05:30N 37°48' E 023°27'3 6.8
2018-Feb-21 05:00N 37°46' E 023°25'1 0.0
2018-Feb-20 16:46N 37°45' E 023°25'1 5.1
2018-Feb-20 16:30N 37°46' E 023°25'3 5.3
2018-Feb-20 16:00N 37°48' E 023°27'3 5.4
2018-Feb-20 15:30N 37°51' E 023°29'3 5.3
2018-Feb-20 15:00N 37°53' E 023°31'1 2.5
2018-Feb-20 14:28N 37°53' E 023°33'0 0.2
2018-Feb-20 13:56N 37°53' E 023°33'0 0.1
2018-Feb-20 13:29N 37°54' E 023°33'0 0.1
2018-Feb-20 13:00N 37°53' E 023°33'1 2.3
2018-Feb-20 12:30N 37°55' E 023°33'2 5.1
2018-Feb-20 12:01N 37°57' E 023°35'2 4.4
2018-Feb-20 11:30N 37°58' E 023°33'3 5.1
2018-Feb-20 11:00N 38°01' E 023°34'2 2.8
2018-Feb-20 10:26N 38°02' E 023°35'0 0.0
2018-Feb-20 09:55N 38°02' E 023°35'0 0.0
2018-Feb-20 09:30N 38°02' E 023°35'0 0.0
2018-Feb-20 08:59N 38°02' E 023°35'0 0.0
2018-Feb-20 08:28N 38°02' E 023°35'2 3.4
2018-Feb-20 08:00N 38°01' E 023°34'3 6.5
2018-Feb-20 07:31N 37°58' E 023°33'2 4.5
2018-Feb-20 07:00N 37°56' E 023°34'3 6.7
2018-Feb-20 06:30N 37°53' E 023°31'3 6.5
2018-Feb-20 06:00N 37°50' E 023°29'3 6.4
2018-Feb-20 05:30N 37°48' E 023°26'3 5.7
2018-Feb-20 05:00N 37°45' E 023°25'1 0.1
2018-Feb-19 20:55N 37°45' E 023°26'0 0.0
2018-Feb-19 20:30N 37°45' E 023°26'0 0.0
2018-Feb-19 19:55N 37°45' E 023°26'0 0.0
2018-Feb-19 19:25N 37°45' E 023°26'0 0.0
2018-Feb-19 18:59N 37°45' E 023°26'0 0.0
2018-Feb-19 18:29N 37°45' E 023°26'0 0.0
2018-Feb-19 17:45N 37°45' E 023°26'0 0.0
2018-Feb-19 17:29N 37°45' E 023°26'0 0.0
2018-Feb-19 16:57N 37°45' E 023°26'0 0.0
2018-Feb-19 16:28N 37°45' E 023°26'0 0.0
2018-Feb-19 15:56N 37°45' E 023°26'0 0.0
2018-Feb-19 15:28N 37°45' E 023°26'0 0.1
2018-Feb-19 15:00N 37°45' E 023°26'2 3.5
2018-Feb-19 14:30N 37°46' E 023°25'3 5.2
2018-Feb-19 14:00N 37°48' E 023°27'3 5.2
2018-Feb-19 13:30N 37°51' E 023°29'3 5.2
2018-Feb-19 13:00N 37°53' E 023°31'3 5.1
2018-Feb-19 12:30N 37°55' E 023°33'3 5.0
2018-Feb-19 12:00N 37°57' E 023°35'2 4.3
2018-Feb-19 11:31N 37°58' E 023°33'3 5.1
2018-Feb-19 11:00N 38°01' E 023°34'2 3.3
2018-Feb-19 10:28N 38°02' E 023°35'0 0.0
2018-Feb-19 09:59N 38°02' E 023°35'0 0.0
2018-Feb-19 09:28N 38°02' E 023°35'0 0.0
2018-Feb-19 09:00N 38°02' E 023°35'0 0.0
2018-Feb-19 08:25N 38°02' E 023°35'1 3.0
2018-Feb-19 08:00N 38°01' E 023°34'3 6.5
2018-Feb-19 07:30N 37°58' E 023°33'2 4.7
2018-Feb-19 07:00N 37°56' E 023°34'3 6.8
2018-Feb-19 06:30N 37°53' E 023°31'3 6.7
2018-Feb-19 06:00N 37°50' E 023°29'3 6.6
2018-Feb-19 05:30N 37°48' E 023°26'3 6.0
2018-Feb-19 05:00N 37°45' E 023°25'0 0.8
2018-Feb-19 04:30N 37°45' E 023°26'0 0.0
2018-Feb-19 03:59N 37°45' E 023°26'0 0.0
2018-Feb-19 03:29N 37°45' E 023°26'0 0.0
2018-Feb-19 02:55N 37°45' E 023°26'0 0.0
2018-Feb-19 02:25N 37°45' E 023°26'0 0.0
2018-Feb-19 01:55N 37°45' E 023°26'0 0.0
2018-Feb-19 01:27N 37°45' E 023°26'0 0.0
2018-Feb-19 01:00N 37°45' E 023°26'0 0.0
2018-Feb-19 00:30N 37°45' E 023°26'0 0.0
2018-Feb-18 23:47N 37°45' E 023°26'0 0.0
2018-Feb-18 23:29N 37°45' E 023°26'0 0.0
2018-Feb-18 22:59N 37°45' E 023°26'0 0.0
2018-Feb-18 22:29N 37°45' E 023°26'0 0.0
2018-Feb-18 21:59N 37°45' E 023°26'0 0.0
2018-Feb-18 21:29N 37°45' E 023°26'0 0.0
2018-Feb-18 20:59N 37°45' E 023°26'0 0.0
2018-Feb-18 20:29N 37°45' E 023°26'0 0.0
2018-Feb-18 19:55N 37°45' E 023°26'0 0.0
2018-Feb-18 19:25N 37°45' E 023°26'0 0.0
2018-Feb-18 18:57N 37°45' E 023°26'0 0.0
2018-Feb-18 18:26N 37°45' E 023°26'0 0.0
2018-Feb-18 17:59N 37°45' E 023°26'0 0.0
2018-Feb-18 17:28N 37°45' E 023°26'0 0.0
2018-Feb-18 16:55N 37°45' E 023°26'0 0.0
2018-Feb-18 16:28N 37°45' E 023°26'0 0.0
2018-Feb-18 15:51N 37°45' E 023°26'0 0.0
2018-Feb-18 15:25N 37°45' E 023°26'0 0.2
2018-Feb-18 14:55N 37°45' E 023°26'2 3.7
2018-Feb-18 14:30N 37°46' E 023°25'3 5.2
2018-Feb-18 14:00N 37°48' E 023°27'3 5.2
2018-Feb-18 13:30N 37°50' E 023°29'3 5.2
2018-Feb-18 13:00N 37°52' E 023°31'3 5.1
2018-Feb-18 12:30N 37°54' E 023°33'3 5.1
2018-Feb-18 12:00N 37°56' E 023°34'2 3.6
2018-Feb-18 11:31N 37°58' E 023°33'3 5.1
2018-Feb-18 11:00N 38°00' E 023°33'2 4.5
2018-Feb-18 10:30N 38°02' E 023°35'0 0.1
2018-Feb-18 09:59N 38°02' E 023°35'0 0.0
2018-Feb-18 09:28N 38°02' E 023°35'0 0.0
2018-Feb-18 08:59N 38°02' E 023°35'0 0.0
2018-Feb-18 08:29N 38°02' E 023°35'1 1.3
2018-Feb-18 08:00N 38°02' E 023°35'3 6.7
2018-Feb-18 07:30N 37°59' E 023°33'3 5.1
2018-Feb-18 07:00N 37°56' E 023°34'3 6.8
2018-Feb-18 06:30N 37°54' E 023°32'3 6.9
2018-Feb-18 06:00N 37°51' E 023°29'3 6.8
2018-Feb-18 05:30N 37°48' E 023°27'3 6.6
2018-Feb-18 05:01N 37°45' E 023°25'1 1.0
2018-Feb-18 04:28N 37°45' E 023°26'0 0.0
2018-Feb-18 03:58N 37°45' E 023°26'0 0.0
2018-Feb-18 03:28N 37°45' E 023°26'0 0.0
2018-Feb-18 02:59N 37°45' E 023°26'0 0.0
2018-Feb-18 02:29N 37°45' E 023°26'0 0.0
2018-Feb-18 01:58N 37°45' E 023°26'0 0.0
2018-Feb-18 01:26N 37°45' E 023°26'0 0.0
2018-Feb-18 00:56N 37°45' E 023°26'0 0.0
2018-Feb-18 00:26N 37°45' E 023°26'0 0.0
2018-Feb-17 23:56N 37°45' E 023°26'0 0.0
2018-Feb-17 23:26N 37°45' E 023°26'0 0.0
2018-Feb-17 22:56N 37°45' E 023°26'0 0.0
2018-Feb-17 22:27N 37°45' E 023°26'0 0.0
2018-Feb-17 22:00N 37°45' E 023°26'0 0.0
2018-Feb-17 21:27N 37°45' E 023°26'0 0.0
2018-Feb-17 21:00N 37°45' E 023°26'0 0.0
2018-Feb-17 20:30N 37°45' E 023°26'0 0.0
2018-Feb-17 20:00N 37°45' E 023°26'0 0.0
2018-Feb-17 19:30N 37°45' E 023°26'0 0.0
2018-Feb-17 19:00N 37°45' E 023°26'0 0.0
2018-Feb-17 18:26N 37°45' E 023°26'0 0.0
2018-Feb-17 17:59N 37°45' E 023°26'0 0.0
2018-Feb-17 17:29N 37°45' E 023°26'0 0.0
2018-Feb-17 16:54N 37°45' E 023°26'0 0.0
2018-Feb-17 16:30N 37°45' E 023°26'0 0.0
2018-Feb-17 15:54N 37°45' E 023°26'1 1.3
2018-Feb-17 15:30N 37°45' E 023°25'3 5.0
2018-Feb-17 15:00N 37°47' E 023°26'3 5.4
2018-Feb-17 14:30N 37°49' E 023°28'3 5.4
2018-Feb-17 14:01N 37°52' E 023°30'3 5.3
2018-Feb-17 13:30N 37°54' E 023°32'3 5.3
2018-Feb-17 13:00N 37°56' E 023°34'1 2.9
2018-Feb-17 12:30N 37°57' E 023°33'2 4.8
2018-Feb-17 12:00N 37°60' E 023°33'3 5.3
2018-Feb-17 11:30N 38°02' E 023°35'0 0.5
2018-Feb-17 10:58N 38°02' E 023°35'0 0.0
2018-Feb-17 10:29N 38°02' E 023°35'0 0.0
2018-Feb-17 09:58N 38°02' E 023°35'0 0.0
2018-Feb-17 09:30N 38°02' E 023°35'1 2.0
2018-Feb-17 09:00N 38°01' E 023°34'3 6.0
2018-Feb-17 08:30N 37°58' E 023°33'3 5.2
2018-Feb-17 08:01N 37°56' E 023°35'3 6.1
2018-Feb-17 07:30N 37°54' E 023°33'2 3.7
2018-Feb-17 07:00N 37°52' E 023°31'0 0.0
2018-Feb-17 06:27N 37°52' E 023°31'0 0.1
2018-Feb-17 06:00N 37°52' E 023°31'1 2.5
2018-Feb-17 05:30N 37°52' E 023°30'3 6.0
2018-Feb-17 05:01N 37°49' E 023°28'3 5.9
2018-Feb-17 04:31N 37°47' E 023°26'2 4.2
2018-Feb-17 03:59N 37°45' E 023°26'0 0.0
2018-Feb-17 03:30N 37°45' E 023°26'0 0.0
2018-Feb-17 02:24N 37°45' E 023°26'0 0.0
2018-Feb-17 01:51N 37°45' E 023°26'0 0.0
2018-Feb-17 01:15N 37°45' E 023°26'0 0.0
2018-Feb-17 00:15N 37°45' E 023°26'0 0.0
2018-Feb-16 23:51N 37°45' E 023°26'0 0.0
2018-Feb-16 22:27N 37°45' E 023°26'0 0.0
2018-Feb-16 21:35N 37°45' E 023°26'0 0.0
2018-Feb-16 21:29N 37°45' E 023°26'1 1.1
2018-Feb-16 21:00N 37°45' E 023°25'2 5.0
2018-Feb-16 20:30N 37°47' E 023°26'3 5.2
2018-Feb-16 20:00N 37°49' E 023°28'3 5.1
2018-Feb-16 19:30N 37°51' E 023°30'3 5.2
2018-Feb-16 19:00N 37°54' E 023°31'3 5.3
2018-Feb-16 18:30N 37°56' E 023°34'2 3.2
2018-Feb-16 18:01N 37°57' E 023°34'3 5.0
2018-Feb-16 17:31N 37°60' E 023°33'3 5.1
2018-Feb-16 17:01N 38°02' E 023°35'0 0.7
2018-Feb-16 16:30N 38°02' E 023°35'0 0.0
2018-Feb-16 15:55N 38°02' E 023°35'0 0.0
2018-Feb-16 15:29N 38°02' E 023°35'0 0.0
2018-Feb-16 15:00N 38°02' E 023°35'0 0.7
2018-Feb-16 14:30N 38°02' E 023°36'1 2.8
2018-Feb-16 13:59N 38°01' E 023°34'3 5.4
2018-Feb-16 13:30N 37°59' E 023°33'2 4.8
2018-Feb-16 13:00N 37°57' E 023°35'1 2.4
2018-Feb-16 12:28N 37°56' E 023°34'0 0.4
2018-Feb-16 12:00N 37°56' E 023°34'0 0.6
2018-Feb-16 11:31N 37°55' E 023°34'1 1.1
2018-Feb-16 10:59N 37°55' E 023°34'2 5.1
2018-Feb-16 10:31N 37°53' E 023°32'2 3.0
2018-Feb-16 09:56N 37°52' E 023°31'0 0.1
2018-Feb-16 09:29N 37°52' E 023°31'0 0.1
2018-Feb-16 08:58N 37°52' E 023°31'0 0.0
2018-Feb-16 08:28N 37°52' E 023°31'0 0.1
2018-Feb-16 08:00N 37°52' E 023°31'0 0.1
2018-Feb-16 07:30N 37°52' E 023°31'0 0.6
2018-Feb-16 06:58N 37°51' E 023°31'0 0.4
2018-Feb-16 06:30N 37°52' E 023°31'3 5.7
2018-Feb-16 06:01N 37°50' E 023°28'3 5.7
2018-Feb-16 05:31N 37°47' E 023°26'3 5.1
2018-Feb-16 05:00N 37°45' E 023°25'1 0.9
2018-Feb-16 04:21N 37°45' E 023°26'0 0.0
2018-Feb-16 03:55N 37°45' E 023°26'0 0.0
2018-Feb-16 03:25N 37°45' E 023°26'0 0.0
2018-Feb-16 02:55N 37°45' E 023°26'0 0.0
2018-Feb-16 02:28N 37°45' E 023°26'0 0.0
2018-Feb-16 01:55N 37°45' E 023°26'0 0.0
2018-Feb-16 01:25N 37°45' E 023°26'0 0.0
2018-Feb-16 00:55N 37°45' E 023°26'0 0.0
2018-Feb-16 00:29N 37°45' E 023°26'0 0.0
2018-Feb-15 23:58N 37°45' E 023°26'0 0.0
2018-Feb-15 23:28N 37°45' E 023°26'0 0.0
2018-Feb-15 22:58N 37°45' E 023°26'0 0.0
2018-Feb-15 22:28N 37°45' E 023°26'0 0.0
2018-Feb-15 21:58N 37°45' E 023°26'0 0.0
2018-Feb-15 21:28N 37°45' E 023°26'0 0.0
2018-Feb-15 20:58N 37°45' E 023°26'0 0.0
2018-Feb-15 20:29N 37°45' E 023°26'0 0.0
2018-Feb-15 19:59N 37°45' E 023°26'0 0.0
2018-Feb-15 19:29N 37°45' E 023°26'0 0.0
2018-Feb-15 19:00N 37°45' E 023°26'0 0.0
2018-Feb-15 18:30N 37°45' E 023°26'0 0.0
2018-Feb-15 18:00N 37°45' E 023°26'0 0.0
2018-Feb-15 17:26N 37°45' E 023°26'0 0.0
2018-Feb-15 16:50N 37°45' E 023°26'0 0.0
2018-Feb-15 16:25N 37°45' E 023°26'0 0.0
2018-Feb-15 15:58N 37°45' E 023°26'0 0.2
2018-Feb-15 15:31N 37°45' E 023°26'2 3.6
2018-Feb-15 15:01N 37°46' E 023°25'3 5.3
2018-Feb-15 14:30N 37°49' E 023°27'3 5.2
2018-Feb-15 14:00N 37°51' E 023°29'2 4.9
2018-Feb-15 13:31N 37°53' E 023°31'2 4.4
2018-Feb-15 13:01N 37°54' E 023°33'2 4.0
2018-Feb-15 12:30N 37°56' E 023°34'1 2.8
2018-Feb-15 12:00N 37°57' E 023°33'2 4.5
2018-Feb-15 11:30N 37°60' E 023°33'2 4.8
2018-Feb-15 11:00N 38°02' E 023°35'  

Dump ship's entire track history